Time,TemperatureF,DewpointF,PressureIn,WindDirection,WindDirectionDegrees,WindSpeedMPH,WindSpeedGustMPH,Humidity,HourlyPrecipIn,Conditions,Clouds,dailyrainin,SoftwareType,DateUTC
2013-04-09 00:00:00,54.1,45.3,29.91,ENE,67,0.9,4.5,72,0.00,,,0.00,WUHU21623XXSP,2013-04-09 05:00:00,
2013-04-09 00:05:00,54.0,45.1,29.91,East,90,2.2,6.0,72,0.00,,,0.00,WUHU21623XXSP,2013-04-09 05:05:00,
2013-04-09 00:10:00,53.8,45.1,29.91,ENE,67,1.6,6.0,72,0.00,,,0.00,WUHU21623XXSP,2013-04-09 05:10:00,
2013-04-09 00:15:00,53.4,44.6,29.91,ENE,67,4.0,4.0,72,0.00,,,0.00,WUHU21623XXSP,2013-04-09 05:15:00,
2013-04-09 00:20:00,53.2,44.4,29.91,NNE,22,2.2,5.8,72,0.00,,,0.00,WUHU21623XXSP,2013-04-09 05:20:00,
2013-04-09 00:25:00,53.2,44.4,29.91,ENE,67,2.0,5.8,72,0.00,,,0.00,WUHU21623XXSP,2013-04-09 05:25:00,
2013-04-09 00:30:00,53.1,44.6,29.91,NNE,22,5.6,5.6,73,0.00,,,0.00,WUHU21623XXSP,2013-04-09 05:30:00,
2013-04-09 00:35:00,52.9,44.5,29.91,NE,45,3.8,5.6,73,0.00,,,0.00,WUHU21623XXSP,2013-04-09 05:35:00,
2013-04-09 00:40:00,52.7,44.3,29.91,ENE,67,2.0,4.5,73,0.00,,,0.00,WUHU21623XXSP,2013-04-09 05:40:00,
2013-04-09 00:45:00,52.5,44.5,29.92,East,90,5.6,5.6,74,0.00,,,0.00,WUHU21623XXSP,2013-04-09 05:45:00,
2013-04-09 00:50:00,52.2,44.1,29.91,ENE,67,2.5,5.6,74,0.00,,,0.00,WUHU21623XXSP,2013-04-09 05:50:00,
2013-04-09 00:55:00,52.2,44.1,29.92,NE,45,5.8,5.8,74,0.00,,,0.00,WUHU21623XXSP,2013-04-09 05:55:00,
2013-04-09 01:00:00,52.0,44.3,29.91,East,90,1.8,5.8,75,0.00,,,0.00,WUHU21623XXSP,2013-04-09 06:00:00,
2013-04-09 01:05:00,52.0,44.3,29.91,East,90,1.8,5.1,75,0.00,,,0.00,WUHU21623XXSP,2013-04-09 06:05:00,
2013-04-09 01:10:00,51.6,44.0,29.91,ENE,67,2.0,4.7,75,0.00,,,0.00,WUHU21623XXSP,2013-04-09 06:10:00,
2013-04-09 01:15:00,51.4,43.8,29.90,NE,45,4.0,4.7,75,0.00,,,0.00,WUHU21623XXSP,2013-04-09 06:15:00,
2013-04-09 01:20:00,51.4,43.8,29.90,ENE,67,4.5,5.6,75,0.00,,,0.00,WUHU21623XXSP,2013-04-09 06:20:00,
2013-04-09 01:25:00,51.3,43.6,29.90,NE,45,6.7,6.7,75,0.00,,,0.00,WUHU21623XXSP,2013-04-09 06:25:00,
2013-04-09 01:30:00,51.1,43.8,29.90,ENE,67,6.0,6.7,76,0.00,,,0.00,WUHU21623XXSP,2013-04-09 06:30:00,
2013-04-09 01:35:00,50.9,43.6,29.90,ENE,67,4.9,6.0,76,0.00,,,0.00,WUHU21623XXSP,2013-04-09 06:35:00,
2013-04-09 01:40:00,50.9,43.3,29.90,ENE,67,4.7,8.3,75,0.00,,,0.00,WUHU21623XXSP,2013-04-09 06:40:00,
2013-04-09 01:45:00,50.7,43.4,29.91,ENE,67,4.3,8.3,76,0.00,,,0.00,WUHU21623XXSP,2013-04-09 06:45:00,
2013-04-09 01:50:00,50.5,42.9,29.91,ENE,67,6.3,6.3,75,0.00,,,0.00,WUHU21623XXSP,2013-04-09 06:50:00,
2013-04-09 01:55:00,50.4,42.7,29.91,ENE,67,4.5,7.6,75,0.00,,,0.00,WUHU21623XXSP,2013-04-09 06:55:00,
2013-04-09 02:00:00,50.4,42.7,29.90,NE,45,3.8,7.6,75,0.00,,,0.00,WUHU21623XXSP,2013-04-09 07:00:00,
2013-04-09 02:05:00,50.4,42.7,29.90,NE,45,0.9,6.5,75,0.00,,,0.00,WUHU21623XXSP,2013-04-09 07:05:00,
2013-04-09 02:10:00,50.0,42.4,29.90,NE,45,8.1,8.1,75,0.00,,,0.00,WUHU21623XXSP,2013-04-09 07:10:00,
2013-04-09 02:15:00,49.6,41.6,29.89,East,90,4.7,9.2,74,0.00,,,0.00,WUHU21623XXSP,2013-04-09 07:15:00,
2013-04-09 02:20:00,49.6,41.6,29.89,East,90,4.0,9.2,74,0.00,,,0.00,WUHU21623XXSP,2013-04-09 07:20:00,
2013-04-09 02:25:00,49.5,41.5,29.89,East,90,7.8,7.8,74,0.00,,,0.00,WUHU21623XXSP,2013-04-09 07:25:00,
2013-04-09 02:30:00,49.1,41.1,29.89,East,90,5.4,7.8,74,0.00,,,0.00,WUHU21623XXSP,2013-04-09 07:30:00,
2013-04-09 02:35:00,48.9,40.9,29.90,East,90,0.0,6.0,74,0.00,,,0.00,WUHU21623XXSP,2013-04-09 07:35:00,
2013-04-09 02:40:00,48.9,41.3,29.91,NE,45,1.8,6.0,75,0.00,,,0.00,WUHU21623XXSP,2013-04-09 07:40:00,
2013-04-09 02:46:00,48.7,41.4,29.91,NNE,22,3.8,3.8,76,0.00,,,0.00,WUHU21623XXSP,2013-04-09 07:46:00,
2013-04-09 02:51:00,48.7,41.4,29.92,ENE,67,0.0,3.8,76,0.00,,,0.00,WUHU21623XXSP,2013-04-09 07:51:00,
2013-04-09 02:55:00,48.6,41.3,29.93,ESE,112,0.0,3.4,76,0.00,,,0.00,WUHU21623XXSP,2013-04-09 07:55:00,
2013-04-09 03:01:00,48.4,41.1,29.92,ENE,67,2.2,3.4,76,0.00,,,0.00,WUHU21623XXSP,2013-04-09 08:01:00,
2013-04-09 03:06:00,48.2,40.9,29.92,East,90,2.5,2.5,76,0.00,,,0.00,WUHU21623XXSP,2013-04-09 08:06:00,
2013-04-09 03:11:00,47.8,40.6,29.91,SE,135,1.1,2.5,76,0.00,,,0.00,WUHU21623XXSP,2013-04-09 08:11:00,
2013-04-09 03:16:00,47.7,40.7,29.91,East,90,3.1,3.1,77,0.00,,,0.00,WUHU21623XXSP,2013-04-09 08:16:00,
2013-04-09 03:21:00,46.9,40.4,29.90,ENE,67,4.7,4.7,78,0.00,,,0.00,WUHU21623XXSP,2013-04-09 08:21:00,
2013-04-09 03:26:00,46.6,40.5,29.90,ESE,112,5.6,10.1,79,0.00,,,0.00,WUHU21623XXSP,2013-04-09 08:26:00,
2013-04-09 03:31:00,46.4,40.6,29.88,East,90,8.5,17.0,80,0.00,,,0.00,WUHU21623XXSP,2013-04-09 08:31:00,
2013-04-09 03:36:00,45.9,40.7,29.89,ESE,112,8.5,17.0,82,0.00,,,0.00,WUHU21623XXSP,2013-04-09 08:36:00,
2013-04-09 03:41:00,45.5,40.7,29.88,ENE,67,13.0,13.0,83,0.00,,,0.00,WUHU21623XXSP,2013-04-09 08:41:00,
2013-04-09 03:46:00,45.5,40.7,29.88,East,90,4.7,13.0,83,0.00,,,0.00,WUHU21623XXSP,2013-04-09 08:46:00,
2013-04-09 03:51:00,45.3,40.8,29.88,East,90,2.2,13.0,84,0.00,,,0.00,WUHU21623XXSP,2013-04-09 08:51:00,
2013-04-09 03:56:00,45.5,41.3,29.89,ESE,112,10.1,10.1,85,0.00,,,0.00,WUHU21623XXSP,2013-04-09 08:56:00,
2013-04-09 04:01:00,45.5,41.3,29.89,ENE,67,7.6,12.1,85,0.00,,,0.00,WUHU21623XXSP,2013-04-09 09:01:00,
2013-04-09 04:06:00,45.3,41.1,29.88,ENE,67,2.9,12.1,85,0.00,,,0.00,WUHU21623XXSP,2013-04-09 09:06:00,
2013-04-09 04:11:00,45.3,41.1,29.88,ESE,112,1.8,11.9,85,0.00,,,0.00,WUHU21623XXSP,2013-04-09 09:11:00,
2013-04-09 04:16:00,45.1,40.9,29.88,NE,45,11.0,11.0,85,0.00,,,0.00,WUHU21623XXSP,2013-04-09 09:16:00,
2013-04-09 04:21:00,45.1,40.9,29.88,ENE,67,14.3,14.3,85,0.00,,,0.00,WUHU21623XXSP,2013-04-09 09:21:00,
2013-04-09 04:26:00,45.1,40.9,29.88,East,90,8.1,14.3,85,0.00,,,0.00,WUHU21623XXSP,2013-04-09 09:26:00,
2013-04-09 04:32:00,45.3,41.1,29.88,East,90,1.8,8.1,85,0.00,,,0.00,WUHU21623XXSP,2013-04-09 09:32:00,
2013-04-09 04:37:00,45.3,41.4,29.88,NE,45,6.0,10.7,86,0.00,,,0.00,WUHU21623XXSP,2013-04-09 09:37:00,
2013-04-09 04:42:00,45.3,41.4,29.88,ENE,67,11.9,11.9,86,0.00,,,0.00,WUHU21623XXSP,2013-04-09 09:42:00,
2013-04-09 04:47:00,45.3,41.1,29.87,ENE,67,3.8,11.9,85,0.00,,,0.00,WUHU21623XXSP,2013-04-09 09:47:00,
2013-04-09 04:52:00,45.5,41.3,29.86,NNE,22,13.4,13.4,85,0.00,,,0.00,WUHU21623XXSP,2013-04-09 09:52:00,
2013-04-09 04:57:00,45.5,41.3,29.86,ENE,67,8.5,13.4,85,0.00,,,0.00,WUHU21623XXSP,2013-04-09 09:57:00,
2013-04-09 05:02:00,45.3,41.1,29.85,NE,45,5.6,8.9,85,0.00,,,0.00,WUHU21623XXSP,2013-04-09 10:02:00,
2013-04-09 05:07:00,45.5,41.3,29.85,ESE,112,2.7,8.9,85,0.00,,,0.00,WUHU21623XXSP,2013-04-09 10:07:00,
2013-04-09 05:12:00,45.3,41.1,29.85,East,90,4.5,8.5,85,0.00,,,0.00,WUHU21623XXSP,2013-04-09 10:12:00,
2013-04-09 05:17:00,45.3,41.1,29.85,ENE,67,3.8,11.0,85,0.00,,,0.00,WUHU21623XXSP,2013-04-09 10:17:00,
2013-04-09 05:22:00,45.1,40.9,29.86,ESE,112,1.3,7.2,85,0.00,,,0.00,WUHU21623XXSP,2013-04-09 10:22:00,
2013-04-09 05:27:00,45.1,40.9,29.88,NNE,22,2.0,7.2,85,0.00,,,0.00,WUHU21623XXSP,2013-04-09 10:27:00,
2013-04-09 05:32:00,45.1,40.9,29.88,NE,45,4.0,4.5,85,0.00,,,0.00,WUHU21623XXSP,2013-04-09 10:32:00,
2013-04-09 05:37:00,45.1,40.9,29.88,East,90,0.0,4.0,85,0.00,,,0.00,WUHU21623XXSP,2013-04-09 10:37:00,
2013-04-09 05:42:00,45.1,40.9,29.88,ESE,112,2.5,2.5,85,0.00,,,0.00,WUHU21623XXSP,2013-04-09 10:42:00,
2013-04-09 05:47:00,45.1,40.9,29.89,ENE,67,5.1,5.1,85,0.00,,,0.00,WUHU21623XXSP,2013-04-09 10:47:00,
2013-04-09 05:53:00,45.1,40.9,29.90,NNW,337,1.8,5.1,85,0.00,,,0.00,WUHU21623XXSP,2013-04-09 10:53:00,
2013-04-09 05:58:00,45.1,40.9,29.90,East,90,3.6,3.6,85,0.00,,,0.00,WUHU21623XXSP,2013-04-09 10:58:00,
2013-04-09 06:03:00,45.0,40.7,29.89,ENE,67,1.8,3.8,85,0.00,,,0.00,WUHU21623XXSP,2013-04-09 11:03:00,
2013-04-09 06:08:00,45.0,40.7,29.89,ENE,67,4.9,4.9,85,0.00,,,0.00,WUHU21623XXSP,2013-04-09 11:08:00,
2013-04-09 06:12:00,45.0,40.7,29.88,NE,45,4.9,4.9,85,0.00,,,0.00,WUHU21623XXSP,2013-04-09 11:12:00,
2013-04-09 06:17:00,45.0,40.4,29.88,ESE,112,1.3,4.9,84,0.00,,,0.00,WUHU21623XXSP,2013-04-09 11:17:00,
2013-04-09 06:23:00,45.0,40.4,29.88,East,90,2.0,2.0,84,0.00,,,0.00,WUHU21623XXSP,2013-04-09 11:23:00,
2013-04-09 06:27:00,45.0,40.4,29.88,ENE,67,5.6,5.6,84,0.00,,,0.00,WUHU21623XXSP,2013-04-09 11:27:00,
2013-04-09 06:33:00,44.8,40.4,29.87,NE,45,3.8,5.6,84,0.00,,,0.00,WUHU21623XXSP,2013-04-09 11:33:00,
2013-04-09 06:37:00,44.6,40.1,29.87,NE,45,5.8,7.6,84,0.00,,,0.00,WUHU21623XXSP,2013-04-09 11:37:00,
2013-04-09 06:42:00,44.8,40.2,29.86,NE,45,6.7,7.6,84,0.00,,,0.00,WUHU21623XXSP,2013-04-09 11:42:00,
2013-04-09 06:47:00,44.6,40.1,29.86,East,90,13.0,13.0,84,0.00,,,0.00,WUHU21623XXSP,2013-04-09 11:47:00,
2013-04-09 06:52:00,44.6,40.1,29.86,ENE,67,6.3,13.0,84,0.00,,,0.00,WUHU21623XXSP,2013-04-09 11:52:00,
2013-04-09 06:57:00,44.2,39.7,29.86,ENE,67,1.6,8.5,84,0.00,,,0.00,WUHU21623XXSP,2013-04-09 11:57:00,
2013-04-09 07:02:00,44.4,39.9,29.86,NE,45,2.5,8.5,84,0.00,,,0.00,WUHU21623XXSP,2013-04-09 12:02:00,
2013-04-09 07:07:00,44.4,39.9,29.86,ENE,67,0.4,3.8,84,0.00,,,0.00,WUHU21623XXSP,2013-04-09 12:07:00,
2013-04-09 07:12:00,44.4,39.9,29.87,NE,45,3.1,8.1,84,0.00,,,0.00,WUHU21623XXSP,2013-04-09 12:12:00,
2013-04-09 07:17:00,44.4,39.9,29.88,NNE,22,0.9,8.1,84,0.00,,,0.00,WUHU21623XXSP,2013-04-09 12:17:00,
2013-04-09 07:22:00,44.2,39.7,29.91,East,90,2.9,2.9,84,0.00,,,0.00,WUHU21623XXSP,2013-04-09 12:22:00,
2013-04-09 07:28:00,44.4,39.7,29.88,NE,45,0.9,2.9,84,0.00,,,0.00,WUHU21623XXSP,2013-04-09 12:28:00,
2013-04-09 07:33:00,44.1,39.5,29.89,East,90,1.3,6.9,84,0.00,,,0.00,WUHU21623XXSP,2013-04-09 12:33:00,
2013-04-09 07:38:00,44.2,40.0,29.88,East,90,5.8,6.9,85,0.00,,,0.00,WUHU21623XXSP,2013-04-09 12:38:00,
2013-04-09 07:43:00,44.1,39.8,29.88,East,90,4.7,7.6,85,0.00,,,0.00,WUHU21623XXSP,2013-04-09 12:43:00,
2013-04-09 07:48:00,44.1,39.8,29.88,East,90,3.8,10.1,85,0.00,,,0.00,WUHU21623XXSP,2013-04-09 12:48:00,
2013-04-09 07:53:00,44.2,40.0,29.88,East,90,0.2,10.1,85,0.00,,,0.00,WUHU21623XXSP,2013-04-09 12:53:00,
2013-04-09 07:58:00,44.2,40.0,29.87,East,90,2.2,5.1,85,0.00,,,0.00,WUHU21623XXSP,2013-04-09 12:58:00,
2013-04-09 08:03:00,44.6,40.7,29.87,ENE,67,5.8,5.8,86,0.00,,,0.00,WUHU21623XXSP,2013-04-09 13:03:00,
2013-04-09 08:08:00,44.4,40.5,29.88,NE,45,4.7,9.6,86,0.00,,,0.00,WUHU21623XXSP,2013-04-09 13:08:00,
2013-04-09 08:13:00,44.8,40.9,29.88,NE,45,1.3,9.6,86,0.00,,,0.00,WUHU21623XXSP,2013-04-09 13:13:00,
2013-04-09 08:18:00,44.8,40.9,29.88,NE,45,4.5,4.5,86,0.00,,,0.00,WUHU21623XXSP,2013-04-09 13:18:00,
2013-04-09 08:23:00,44.8,40.9,29.88,ENE,67,0.0,6.5,86,0.00,,,0.00,WUHU21623XXSP,2013-04-09 13:23:00,
2013-04-09 08:28:00,44.8,40.9,29.88,NNE,22,3.4,6.5,86,0.00,,,0.00,WUHU21623XXSP,2013-04-09 13:28:00,
2013-04-09 08:33:00,44.8,40.9,29.88,NNE,22,3.8,6.7,86,0.00,,,0.00,WUHU21623XXSP,2013-04-09 13:33:00,
2013-04-09 08:38:00,44.6,40.7,29.87,East,90,0.0,6.7,86,0.00,,,0.00,WUHU21623XXSP,2013-04-09 13:38:00,
2013-04-09 08:43:00,44.6,40.7,29.87,NE,45,4.7,4.7,86,0.00,,,0.00,WUHU21623XXSP,2013-04-09 13:43:00,
2013-04-09 08:48:00,44.4,40.5,29.87,NNE,22,2.5,4.7,86,0.00,,,0.00,WUHU21623XXSP,2013-04-09 13:48:00,
2013-04-09 08:53:00,44.8,40.9,29.87,NNE,22,2.2,3.1,86,0.00,,,0.00,WUHU21623XXSP,2013-04-09 13:53:00,
2013-04-09 08:58:00,44.8,40.9,29.86,East,90,5.6,5.6,86,0.00,,,0.00,WUHU21623XXSP,2013-04-09 13:58:00,
2013-04-09 09:03:00,44.6,40.7,29.86,ENE,67,13.4,13.4,86,0.00,,,0.00,WUHU21623XXSP,2013-04-09 14:03:00,
2013-04-09 09:08:00,44.8,40.9,29.86,ENE,67,5.8,13.4,86,0.00,,,0.00,WUHU21623XXSP,2013-04-09 14:08:00,
2013-04-09 09:13:00,44.8,40.9,29.85,East,90,0.4,6.5,86,0.00,,,0.00,WUHU21623XXSP,2013-04-09 14:13:00,
2013-04-09 09:18:00,44.8,40.9,29.85,ENE,67,2.5,6.5,86,0.00,,,0.00,WUHU21623XXSP,2013-04-09 14:18:00,
2013-04-09 09:23:00,45.0,41.3,29.84,NE,45,3.4,7.2,87,0.00,,,0.00,WUHU21623XXSP,2013-04-09 14:23:00,
2013-04-09 09:28:00,45.3,41.7,29.84,ENE,67,2.7,7.2,87,0.00,,,0.00,WUHU21623XXSP,2013-04-09 14:28:00,
2013-04-09 09:33:00,45.5,41.9,29.84,East,90,6.5,6.5,87,0.00,,,0.00,WUHU21623XXSP,2013-04-09 14:33:00,
2013-04-09 09:38:00,45.9,42.2,29.84,East,90,3.1,6.5,87,0.00,,,0.00,WUHU21623XXSP,2013-04-09 14:38:00,
2013-04-09 09:43:00,46.0,42.4,29.85,East,90,4.7,5.8,87,0.00,,,0.00,WUHU21623XXSP,2013-04-09 14:43:00,
2013-04-09 09:48:00,46.0,42.4,29.85,ENE,67,3.8,5.8,87,0.00,,,0.00,WUHU21623XXSP,2013-04-09 14:48:00,
2013-04-09 09:53:00,46.0,42.4,29.85,NE,45,4.5,4.7,87,0.00,,,0.00,WUHU21623XXSP,2013-04-09 14:53:00,
2013-04-09 09:58:00,46.0,42.4,29.85,NE,45,8.5,8.5,87,0.00,,,0.00,WUHU21623XXSP,2013-04-09 14:58:00,
2013-04-09 10:03:00,46.0,42.4,29.85,ENE,67,7.2,14.3,87,0.00,,,0.00,WUHU21623XXSP,2013-04-09 15:03:00,
2013-04-09 10:08:00,46.0,42.1,29.85,ESE,112,5.1,14.3,86,0.00,,,0.00,WUHU21623XXSP,2013-04-09 15:08:00,
2013-04-09 10:13:00,46.2,42.3,29.84,ENE,67,11.0,11.0,86,0.00,,,0.00,WUHU21623XXSP,2013-04-09 15:13:00,
2013-04-09 10:18:00,46.2,42.3,29.84,East,90,2.9,11.0,86,0.00,,,0.00,WUHU21623XXSP,2013-04-09 15:18:00,
2013-04-09 10:23:00,46.2,42.3,29.84,ENE,67,5.1,5.4,86,0.00,,,0.00,WUHU21623XXSP,2013-04-09 15:23:00,
2013-04-09 10:28:00,46.6,42.6,29.84,ENE,67,4.7,6.3,86,0.00,,,0.00,WUHU21623XXSP,2013-04-09 15:28:00,
2013-04-09 10:33:00,46.6,42.6,29.84,East,90,6.7,6.7,86,0.00,,,0.00,WUHU21623XXSP,2013-04-09 15:33:00,
2013-04-09 10:38:00,46.8,42.8,29.83,East,90,6.0,6.7,86,0.00,,,0.00,WUHU21623XXSP,2013-04-09 15:38:00,
2013-04-09 10:43:00,46.8,42.8,29.83,East,90,0.9,6.9,86,0.00,,,0.00,WUHU21623XXSP,2013-04-09 15:43:00,
2013-04-09 10:48:00,47.1,43.2,29.83,East,90,5.8,6.9,86,0.00,,,0.00,WUHU21623XXSP,2013-04-09 15:48:00,
2013-04-09 10:54:00,47.8,43.5,29.83,ENE,67,5.8,5.8,85,0.00,,,0.00,WUHU21623XXSP,2013-04-09 15:54:00,
2013-04-09 10:59:00,48.2,43.7,29.82,NE,45,5.1,5.8,85,0.00,,,0.00,WUHU21623XXSP,2013-04-09 15:59:00,
2013-04-09 11:04:00,48.4,44.0,29.82,ESE,112,3.6,5.1,85,0.00,,,0.00,WUHU21623XXSP,2013-04-09 16:04:00,
2013-04-09 11:09:00,48.7,44.4,29.82,NNE,22,2.5,4.7,85,0.00,,,0.00,WUHU21623XXSP,2013-04-09 16:09:00,
2013-04-09 11:14:00,49.1,44.7,29.82,ENE,67,5.6,5.6,85,0.00,,,0.00,WUHU21623XXSP,2013-04-09 16:14:00,
2013-04-09 11:19:00,49.5,44.8,29.83,East,90,6.3,6.3,84,0.00,,,0.00,WUHU21623XXSP,2013-04-09 16:19:00,
2013-04-09 11:24:00,49.5,44.4,29.83,East,90,2.0,6.3,83,0.00,,,0.00,WUHU21623XXSP,2013-04-09 16:24:00,
2013-04-09 11:29:00,49.8,44.8,29.82,ESE,112,5.8,5.8,83,0.00,,,0.00,WUHU21623XXSP,2013-04-09 16:29:00,
2013-04-09 11:34:00,50.2,45.2,29.82,ESE,112,2.0,5.8,83,0.00,,,0.00,WUHU21623XXSP,2013-04-09 16:34:00,
2013-04-09 11:39:00,50.4,45.3,29.81,SE,135,2.2,3.6,83,0.00,,,0.00,WUHU21623XXSP,2013-04-09 16:39:00,
2013-04-09 11:44:00,50.4,45.3,29.80,ENE,67,6.5,6.5,83,0.00,,,0.00,WUHU21623XXSP,2013-04-09 16:44:00,
2013-04-09 11:49:00,50.7,45.7,29.81,East,90,7.8,7.8,83,0.00,,,0.00,WUHU21623XXSP,2013-04-09 16:49:00,
2013-04-09 11:54:00,50.7,45.7,29.81,ESE,112,6.7,7.8,83,0.00,,,0.00,WUHU21623XXSP,2013-04-09 16:54:00,
2013-04-09 11:59:00,50.7,45.4,29.81,SE,135,4.0,6.7,82,0.00,,,0.00,WUHU21623XXSP,2013-04-09 16:59:00,
2013-04-09 12:04:00,50.7,45.4,29.81,East,90,2.0,5.4,82,0.00,,,0.00,WUHU21623XXSP,2013-04-09 17:04:00,
2013-04-09 12:09:00,50.5,45.2,29.81,East,90,1.3,3.8,82,0.00,,,0.00,WUHU21623XXSP,2013-04-09 17:09:00,
2013-04-09 12:15:00,50.5,45.2,29.81,ESE,112,2.0,2.2,82,0.00,,,0.00,WUHU21623XXSP,2013-04-09 17:15:00,
2013-04-09 12:20:00,50.7,45.2,29.81,East,90,0.0,2.2,82,0.00,,,0.00,WUHU21623XXSP,2013-04-09 17:20:00,
2013-04-09 12:25:00,50.7,45.4,29.81,NNE,22,1.1,2.0,83,0.00,,,0.00,WUHU21623XXSP,2013-04-09 17:25:00,
2013-04-09 12:30:00,50.9,45.6,29.82,West,270,0.0,5.1,82,0.00,,,0.00,WUHU21623XXSP,2013-04-09 17:30:00,
2013-04-09 12:35:00,50.9,45.6,29.82,SE,135,0.0,5.1,82,0.00,,,0.00,WUHU21623XXSP,2013-04-09 17:35:00,
2013-04-09 12:40:00,50.9,45.6,29.82,ENE,67,2.9,2.9,82,0.00,,,0.00,WUHU21623XXSP,2013-04-09 17:40:00,
2013-04-09 12:45:00,50.9,45.6,29.85,North,0,6.0,8.7,82,0.00,,,0.00,WUHU21623XXSP,2013-04-09 17:45:00,
2013-04-09 12:50:00,51.1,45.8,29.83,SE,135,3.1,8.7,82,0.00,,,0.00,WUHU21623XXSP,2013-04-09 17:50:00,
2013-04-09 12:55:00,51.1,45.8,29.83,NNE,22,2.2,6.9,82,0.00,,,0.00,WUHU21623XXSP,2013-04-09 17:55:00,
2013-04-09 13:00:00,51.1,45.4,29.82,ENE,67,2.7,6.9,81,0.00,,,0.00,WUHU21623XXSP,2013-04-09 18:00:00,
2013-04-09 13:05:00,51.4,46.1,29.82,ENE,67,5.6,12.5,82,0.00,,,0.00,WUHU21623XXSP,2013-04-09 18:05:00,
2013-04-09 13:10:00,52.0,46.7,29.82,NE,45,6.0,12.5,82,0.00,,,0.00,WUHU21623XXSP,2013-04-09 18:10:00,
2013-04-09 13:15:00,52.3,47.0,29.82,NNE,22,6.3,7.4,82,0.00,,,0.00,WUHU21623XXSP,2013-04-09 18:15:00,
2013-04-09 13:20:00,53.2,47.6,29.82,NNE,22,6.7,6.7,81,0.00,,,0.00,WUHU21623XXSP,2013-04-09 18:20:00,
2013-04-09 13:25:00,54.3,48.3,29.81,East,90,6.3,6.9,80,0.00,,,0.00,WUHU21623XXSP,2013-04-09 18:25:00,
2013-04-09 13:30:00,54.9,48.1,29.81,NNE,22,6.0,6.9,78,0.00,,,0.00,WUHU21623XXSP,2013-04-09 18:30:00,
2013-04-09 13:35:00,55.6,48.4,29.81,ENE,67,9.2,9.6,77,0.00,,,0.00,WUHU21623XXSP,2013-04-09 18:35:00,
2013-04-09 13:40:00,55.8,47.9,29.81,East,90,0.0,9.6,75,0.00,,,0.00,WUHU21623XXSP,2013-04-09 18:40:00,
2013-04-09 13:45:00,55.6,47.4,29.81,ENE,67,2.7,6.9,74,0.00,,,0.00,WUHU21623XXSP,2013-04-09 18:45:00,
2013-04-09 13:50:00,55.2,46.7,29.81,NE,45,0.0,6.9,73,0.00,,,0.00,WUHU21623XXSP,2013-04-09 18:50:00,
2013-04-09 13:55:00,55.0,46.5,29.80,East,90,5.6,5.6,73,0.00,,,0.00,WUHU21623XXSP,2013-04-09 18:55:00,
2013-04-09 14:00:00,54.9,46.3,29.80,North,0,0.4,7.8,73,0.00,,,0.00,WUHU21623XXSP,2013-04-09 19:00:00,
2013-04-09 14:05:00,54.7,46.5,29.81,ENE,67,0.9,7.8,74,0.00,,,0.00,WUHU21623XXSP,2013-04-09 19:05:00,
2013-04-09 14:10:00,54.7,46.5,29.81,North,0,3.4,3.4,74,0.00,,,0.00,WUHU21623XXSP,2013-04-09 19:10:00,
2013-04-09 14:15:00,54.5,46.4,29.83,NNW,337,7.2,7.2,74,0.00,,,0.00,WUHU21623XXSP,2013-04-09 19:15:00,
2013-04-09 14:20:00,54.1,46.0,29.82,NNE,22,6.0,7.2,74,0.00,,,0.00,WUHU21623XXSP,2013-04-09 19:20:00,
2013-04-09 14:25:00,53.8,45.7,29.83,NNE,22,4.7,6.3,74,0.00,,,0.00,WUHU21623XXSP,2013-04-09 19:25:00,
2013-04-09 14:30:00,53.4,45.3,29.82,NE,45,6.0,6.0,74,0.00,,,0.00,WUHU21623XXSP,2013-04-09 19:30:00,
2013-04-09 14:35:00,53.2,45.2,29.82,NE,45,6.5,6.5,74,0.00,,,0.00,WUHU21623XXSP,2013-04-09 19:35:00,
2013-04-09 14:40:00,53.1,45.0,29.82,NNE,22,9.6,9.6,74,0.00,,,0.00,WUHU21623XXSP,2013-04-09 19:40:00,
2013-04-09 14:45:00,53.1,45.3,29.82,NE,45,5.6,9.6,75,0.00,,,0.00,WUHU21623XXSP,2013-04-09 19:45:00,
2013-04-09 14:50:00,52.7,45.0,29.83,NNE,22,11.2,11.2,75,0.00,,,0.00,WUHU21623XXSP,2013-04-09 19:50:00,
2013-04-09 14:55:00,52.7,45.0,29.83,North,0,9.6,11.2,75,0.00,,,0.00,WUHU21623XXSP,2013-04-09 19:55:00,
2013-04-09 15:00:00,52.5,45.2,29.83,NNE,22,11.6,11.6,76,0.00,,,0.00,WUHU21623XXSP,2013-04-09 20:00:00,
2013-04-09 15:05:00,52.5,45.2,29.82,NE,45,6.5,11.6,76,0.00,,,0.00,WUHU21623XXSP,2013-04-09 20:05:00,
2013-04-09 15:10:00,52.5,45.2,29.83,North,0,8.5,9.4,76,0.00,,,0.00,WUHU21623XXSP,2013-04-09 20:10:00,
2013-04-09 15:15:00,52.3,45.0,29.83,NE,45,6.3,8.5,76,0.00,,,0.00,WUHU21623XXSP,2013-04-09 20:15:00,
2013-04-09 15:20:00,52.2,44.8,29.83,NE,45,6.5,6.9,76,0.00,,,0.00,WUHU21623XXSP,2013-04-09 20:20:00,
2013-04-09 15:25:00,52.2,44.8,29.83,NNE,22,11.6,11.6,76,0.00,,,0.00,WUHU21623XXSP,2013-04-09 20:25:00,
2013-04-09 15:30:00,52.0,44.7,29.83,NNE,22,5.1,11.6,76,0.00,,,0.00,WUHU21623XXSP,2013-04-09 20:30:00,
2013-04-09 15:35:00,51.4,44.1,29.83,NNE,22,5.6,11.6,76,0.00,,,0.00,WUHU21623XXSP,2013-04-09 20:35:00,
2013-04-09 15:40:00,51.3,44.0,29.82,North,0,6.5,6.9,76,0.00,,,0.00,WUHU21623XXSP,2013-04-09 20:40:00,
2013-04-09 15:45:00,50.9,43.6,29.82,NE,45,5.8,6.5,76,0.00,,,0.00,WUHU21623XXSP,2013-04-09 20:45:00,
2013-04-09 15:50:00,50.9,43.9,29.82,NNE,22,6.9,7.2,77,0.00,,,0.00,WUHU21623XXSP,2013-04-09 20:50:00,
2013-04-09 15:55:00,50.7,43.8,29.83,NNE,22,7.4,7.4,77,0.00,,,0.00,WUHU21623XXSP,2013-04-09 20:55:00,
2013-04-09 16:00:00,50.7,44.1,29.83,NE,45,15.7,15.7,78,0.00,,,0.00,WUHU21623XXSP,2013-04-09 21:00:00,
2013-04-09 16:05:00,50.5,43.9,29.83,North,0,13.0,15.7,78,0.00,,,0.00,WUHU21623XXSP,2013-04-09 21:05:00,
2013-04-09 16:11:00,50.4,43.7,29.83,NNE,22,9.2,14.3,78,0.00,,,0.00,WUHU21623XXSP,2013-04-09 21:11:00,
2013-04-09 16:16:00,50.0,43.4,29.83,NNE,22,8.9,15.2,78,0.00,,,0.00,WUHU21623XXSP,2013-04-09 21:16:00,
2013-04-09 16:21:00,49.6,43.0,29.84,NNE,22,20.6,20.6,78,0.00,,,0.00,WUHU21623XXSP,2013-04-09 21:21:00,
2013-04-09 16:26:00,49.5,42.8,29.84,NE,45,7.4,20.6,78,0.00,,,0.00,WUHU21623XXSP,2013-04-09 21:26:00,
2013-04-09 16:31:00,48.9,42.3,29.84,North,0,7.8,7.8,78,0.00,,,0.00,WUHU21623XXSP,2013-04-09 21:31:00,
2013-04-09 16:36:00,48.9,42.6,29.84,NNE,22,7.2,7.8,79,0.00,,,0.00,WUHU21623XXSP,2013-04-09 21:36:00,
2013-04-09 16:41:00,48.7,42.5,29.84,North,0,9.4,9.4,79,0.00,,,0.00,WUHU21623XXSP,2013-04-09 21:41:00,
2013-04-09 16:46:00,48.6,42.3,29.84,ENE,67,3.6,9.4,79,0.00,,,0.00,WUHU21623XXSP,2013-04-09 21:46:00,
2013-04-09 16:51:00,48.4,42.1,29.84,ENE,67,5.6,9.4,79,0.00,,,0.00,WUHU21623XXSP,2013-04-09 21:51:00,
2013-04-09 16:56:00,48.0,41.8,29.84,NE,45,5.8,8.5,79,0.00,,,0.00,WUHU21623XXSP,2013-04-09 21:56:00,
2013-04-09 17:01:00,48.2,41.9,29.84,North,0,11.6,15.9,79,0.00,,,0.00,WUHU21623XXSP,2013-04-09 22:01:00,
2013-04-09 17:07:00,48.0,41.8,29.85,NE,45,12.3,15.9,79,0.00,,,0.00,WUHU21623XXSP,2013-04-09 22:07:00,
2013-04-09 17:12:00,47.7,41.1,29.85,NNE,22,8.1,12.3,78,0.00,,,0.00,WUHU21623XXSP,2013-04-09 22:12:00,
2013-04-09 17:17:00,47.8,41.3,29.86,NE,45,9.2,23.3,78,0.00,,,0.00,WUHU21623XXSP,2013-04-09 22:17:00,
2013-04-09 17:22:00,47.7,41.1,29.86,NNE,22,14.3,23.3,78,0.00,,,0.00,WUHU21623XXSP,2013-04-09 22:22:00,
2013-04-09 17:27:00,47.5,40.9,29.86,NE,45,17.4,17.4,78,0.00,,,0.00,WUHU21623XXSP,2013-04-09 22:27:00,
2013-04-09 17:32:00,47.3,40.4,29.86,North,0,7.2,17.4,77,0.00,,,0.00,WUHU21623XXSP,2013-04-09 22:32:00,
2013-04-09 17:37:00,47.1,40.3,29.86,East,90,11.2,11.6,77,0.00,,,0.00,WUHU21623XXSP,2013-04-09 22:37:00,
2013-04-09 17:42:00,47.1,40.6,29.86,NE,45,8.1,13.6,78,0.00,,,0.00,WUHU21623XXSP,2013-04-09 22:42:00,
2013-04-09 17:48:00,46.8,40.3,29.86,ENE,67,8.3,13.6,78,0.00,,,0.00,WUHU21623XXSP,2013-04-09 22:48:00,
2013-04-09 17:53:00,46.6,40.1,29.86,NNE,22,4.7,12.1,78,0.00,,,0.00,WUHU21623XXSP,2013-04-09 22:53:00,
2013-04-09 17:58:00,46.6,40.1,29.86,NE,45,9.8,12.1,78,0.00,,,0.00,WUHU21623XXSP,2013-04-09 22:58:00,
2013-04-09 18:03:00,46.0,39.6,29.86,NNE,22,10.5,11.6,78,0.00,,,0.00,WUHU21623XXSP,2013-04-09 23:03:00,
2013-04-09 18:08:00,46.0,39.6,29.87,NE,45,6.0,17.2,78,0.00,,,0.00,WUHU21623XXSP,2013-04-09 23:08:00,
2013-04-09 18:13:00,45.9,39.4,29.87,ENE,67,6.3,17.2,78,0.00,,,0.00,WUHU21623XXSP,2013-04-09 23:13:00,
2013-04-09 18:18:00,45.5,39.1,29.87,ENE,67,8.7,8.7,78,0.00,,,0.00,WUHU21623XXSP,2013-04-09 23:18:00,
2013-04-09 18:23:00,45.3,38.9,29.87,ENE,67,8.1,17.0,78,0.00,,,0.00,WUHU21623XXSP,2013-04-09 23:23:00,
2013-04-09 18:28:00,45.3,39.2,29.88,NNE,22,3.1,17.0,79,0.00,,,0.00,WUHU21623XXSP,2013-04-09 23:28:00,
2013-04-09 18:33:00,45.1,39.0,29.88,NNE,22,9.2,11.0,79,0.00,,,0.00,WUHU21623XXSP,2013-04-09 23:33:00,
2013-04-09 18:38:00,45.0,38.9,29.87,NNE,22,12.8,12.8,79,0.00,,,0.00,WUHU21623XXSP,2013-04-09 23:38:00,
2013-04-09 18:43:00,45.0,38.9,29.87,NE,45,10.3,12.8,79,0.00,,,0.00,WUHU21623XXSP,2013-04-09 23:43:00,
2013-04-09 18:48:00,44.8,38.7,29.88,NE,45,5.8,11.6,79,0.00,,,0.00,WUHU21623XXSP,2013-04-09 23:48:00,
2013-04-09 18:53:00,44.6,38.5,29.88,East,90,8.1,11.2,79,0.00,,,0.00,WUHU21623XXSP,2013-04-09 23:53:00,
2013-04-09 18:58:00,44.6,38.5,29.88,NE,45,2.7,11.2,79,0.00,,,0.00,WUHU21623XXSP,2013-04-09 23:58:00,
2013-04-09 19:03:00,44.4,38.7,29.88,NNE,22,8.9,15.2,80,0.00,,,0.00,WUHU21623XXSP,2013-04-10 00:03:00,
2013-04-09 19:08:00,44.2,38.5,29.88,NNE,22,3.4,15.2,80,0.00,,,0.00,WUHU21623XXSP,2013-04-10 00:08:00,
2013-04-09 19:13:00,44.2,38.5,29.88,ENE,67,7.2,15.2,80,0.00,,,0.00,WUHU21623XXSP,2013-04-10 00:13:00,
2013-04-09 19:18:00,44.1,38.3,29.88,NNE,22,10.5,16.1,80,0.00,,,0.00,WUHU21623XXSP,2013-04-10 00:18:00,
2013-04-09 19:23:00,43.9,38.1,29.89,NE,45,8.3,16.1,80,0.00,,,0.00,WUHU21623XXSP,2013-04-10 00:23:00,
2013-04-09 19:28:00,43.7,37.6,29.89,NE,45,6.9,8.5,79,0.00,,,0.00,WUHU21623XXSP,2013-04-10 00:28:00,
2013-04-09 19:33:00,43.7,37.9,29.89,NNE,22,8.9,8.9,80,0.00,,,0.00,WUHU21623XXSP,2013-04-10 00:33:00,
2013-04-09 19:38:00,43.7,37.9,29.89,NE,45,7.8,9.4,80,0.00,,,0.00,WUHU21623XXSP,2013-04-10 00:38:00,
2013-04-09 19:43:00,43.7,37.9,29.89,WNW,292,3.4,9.4,80,0.00,,,0.00,WUHU21623XXSP,2013-04-10 00:43:00,
2013-04-09 19:48:00,43.5,38.1,29.89,NNE,22,0.9,7.2,81,0.00,,,0.00,WUHU21623XXSP,2013-04-10 00:48:00,
2013-04-09 19:53:00,43.3,37.9,29.89,ENE,67,7.4,18.8,81,0.00,,,0.00,WUHU21623XXSP,2013-04-10 00:53:00,
2013-04-09 19:58:00,43.3,37.9,29.89,NE,45,9.8,18.8,81,0.00,,,0.00,WUHU21623XXSP,2013-04-10 00:58:00,
2013-04-09 20:03:00,43.3,37.9,29.89,ENE,67,2.2,9.8,81,0.00,,,0.00,WUHU21623XXSP,2013-04-10 01:03:00,
2013-04-09 20:08:00,43.3,37.9,29.89,NNE,22,4.5,8.5,81,0.00,,,0.00,WUHU21623XXSP,2013-04-10 01:08:00,
2013-04-09 20:13:00,43.2,37.7,29.90,NNE,22,5.6,11.2,81,0.00,,,0.00,WUHU21623XXSP,2013-04-10 01:13:00,
2013-04-09 20:18:00,43.3,37.9,29.89,North,0,4.3,13.9,81,0.00,,,0.00,WUHU21623XXSP,2013-04-10 01:18:00,
2013-04-09 20:23:00,43.2,37.7,29.89,NNE,22,4.3,13.9,81,0.00,,,0.00,WUHU21623XXSP,2013-04-10 01:23:00,
2013-04-09 20:28:00,43.2,37.7,29.89,NE,45,11.0,11.0,81,0.00,,,0.00,WUHU21623XXSP,2013-04-10 01:28:00,
2013-04-09 20:33:00,43.2,37.7,29.89,ENE,67,5.8,11.0,81,0.00,,,0.00,WUHU21623XXSP,2013-04-10 01:33:00,
2013-04-09 20:38:00,43.2,37.7,29.89,North,0,9.8,9.8,81,0.00,,,0.00,WUHU21623XXSP,2013-04-10 01:38:00,
2013-04-09 20:43:00,43.0,37.5,29.89,East,90,3.8,9.8,81,0.00,,,0.00,WUHU21623XXSP,2013-04-10 01:43:00,
2013-04-09 20:48:00,43.0,37.5,29.89,NE,45,0.9,6.7,81,0.00,,,0.00,WUHU21623XXSP,2013-04-10 01:48:00,
2013-04-09 20:53:00,43.0,37.5,29.89,ENE,67,4.7,6.5,81,0.00,,,0.00,WUHU21623XXSP,2013-04-10 01:53:00,
2013-04-09 20:58:00,42.8,37.3,29.90,ENE,67,13.6,13.6,81,0.00,,,0.00,WUHU21623XXSP,2013-04-10 01:58:00,
2013-04-09 21:03:00,42.6,37.2,29.90,NNE,22,12.8,13.6,81,0.00,,,0.00,WUHU21623XXSP,2013-04-10 02:03:00,
2013-04-09 21:08:00,42.4,37.0,29.90,ENE,67,13.2,13.2,81,0.00,,,0.00,WUHU21623XXSP,2013-04-10 02:08:00,
2013-04-09 21:13:00,42.4,37.0,29.90,ENE,67,10.5,13.2,81,0.00,,,0.00,WUHU21623XXSP,2013-04-10 02:13:00,
2013-04-09 21:18:00,42.4,37.0,29.90,East,90,12.8,12.8,81,0.00,,,0.00,WUHU21623XXSP,2013-04-10 02:18:00,
2013-04-09 21:23:00,42.3,36.8,29.90,NE,45,6.5,12.8,81,0.00,,,0.00,WUHU21623XXSP,2013-04-10 02:23:00,
2013-04-09 21:28:00,42.3,36.8,29.90,NE,45,7.6,7.6,81,0.00,,,0.00,WUHU21623XXSP,2013-04-10 02:28:00,
2013-04-09 21:33:00,41.9,36.4,29.90,ENE,67,6.5,7.6,81,0.00,,,0.00,WUHU21623XXSP,2013-04-10 02:33:00,
2013-04-09 21:38:00,41.9,36.1,29.90,ENE,67,10.5,10.5,80,0.00,,,0.00,WUHU21623XXSP,2013-04-10 02:38:00,
2013-04-09 21:43:00,41.9,36.1,29.91,ENE,67,3.1,10.5,80,0.00,,,0.00,WUHU21623XXSP,2013-04-10 02:43:00,
2013-04-09 21:48:00,41.9,36.4,29.92,ENE,67,5.6,9.2,81,0.00,,,0.00,WUHU21623XXSP,2013-04-10 02:48:00,
2013-04-09 21:53:00,41.9,36.1,29.92,SSE,157,5.1,9.8,80,0.00,,,0.00,WUHU21623XXSP,2013-04-10 02:53:00,
2013-04-09 21:58:00,41.7,36.0,29.92,East,90,7.8,9.8,81,0.00,,,0.00,WUHU21623XXSP,2013-04-10 02:58:00,
2013-04-09 22:03:00,41.7,36.3,29.91,NE,45,8.1,8.1,81,0.00,,,0.00,WUHU21623XXSP,2013-04-10 03:03:00,
2013-04-09 22:08:00,41.5,36.1,29.92,ENE,67,6.0,8.1,81,0.00,,,0.00,WUHU21623XXSP,2013-04-10 03:08:00,
2013-04-09 22:13:00,41.4,35.9,29.91,NNE,22,6.9,8.9,81,0.00,,,0.00,WUHU21623XXSP,2013-04-10 03:13:00,
2013-04-09 22:18:00,41.4,35.9,29.91,East,90,10.7,10.7,81,0.00,,,0.00,WUHU21623XXSP,2013-04-10 03:18:00,
2013-04-09 22:23:00,41.4,35.9,29.92,NE,45,3.8,10.7,81,0.00,,,0.00,WUHU21623XXSP,2013-04-10 03:23:00,
2013-04-09 22:28:00,41.2,35.7,29.92,NE,45,2.0,10.1,81,0.00,,,0.00,WUHU21623XXSP,2013-04-10 03:28:00,
2013-04-09 22:33:00,41.2,35.7,29.92,NNE,22,5.4,6.9,81,0.00,,,0.00,WUHU21623XXSP,2013-04-10 03:33:00,
2013-04-09 22:38:00,41.2,35.7,29.92,East,90,5.8,6.5,81,0.00,,,0.00,WUHU21623XXSP,2013-04-10 03:38:00,
2013-04-09 22:43:00,41.2,35.7,29.92,ENE,67,1.6,6.5,81,0.00,,,0.00,WUHU21623XXSP,2013-04-10 03:43:00,
2013-04-09 22:48:00,41.2,35.7,29.92,ESE,112,2.2,5.4,81,0.00,,,0.00,WUHU21623XXSP,2013-04-10 03:48:00,
2013-04-09 22:53:00,41.2,35.7,29.92,NE,45,8.9,11.4,81,0.00,,,0.00,WUHU21623XXSP,2013-04-10 03:53:00,
2013-04-09 22:58:00,41.2,35.7,29.92,ENE,67,1.1,11.4,81,0.00,,,0.00,WUHU21623XXSP,2013-04-10 03:58:00,
2013-04-09 23:00:00,41.2,35.7,29.92,North,0,7.4,8.9,81,0.00,,,0.00,WUHU21623XXSP,2013-04-10 04:00:00,
2013-04-09 23:05:00,41.0,35.5,29.92,NE,45,12.1,12.1,81,0.00,,,0.00,WUHU21623XXSP,2013-04-10 04:05:00,
2013-04-09 23:10:00,40.8,35.4,29.92,NE,45,6.0,12.1,81,0.00,,,0.00,WUHU21623XXSP,2013-04-10 04:10:00,
2013-04-09 23:15:00,40.6,35.2,29.92,ENE,67,4.3,11.9,81,0.00,,,0.00,WUHU21623XXSP,2013-04-10 04:15:00,
2013-04-09 23:20:00,40.6,35.2,29.91,NNE,22,11.2,11.9,81,0.00,,,0.00,WUHU21623XXSP,2013-04-10 04:20:00,
2013-04-09 23:25:00,40.6,35.2,29.91,ENE,67,6.5,11.2,81,0.00,,,0.00,WUHU21623XXSP,2013-04-10 04:25:00,
2013-04-09 23:30:00,40.5,35.0,29.91,NE,45,3.4,7.4,81,0.00,,,0.00,WUHU21623XXSP,2013-04-10 04:30:00,
2013-04-09 23:35:00,40.5,35.3,29.91,North,0,4.9,8.7,82,0.00,,,0.00,WUHU21623XXSP,2013-04-10 04:35:00,
2013-04-09 23:40:00,40.3,35.2,29.91,ENE,67,0.7,8.7,82,0.00,,,0.00,WUHU21623XXSP,2013-04-10 04:40:00,
2013-04-09 23:45:00,40.3,35.2,29.91,East,90,12.3,12.3,82,0.00,,,0.00,WUHU21623XXSP,2013-04-10 04:45:00,
2013-04-09 23:50:00,40.3,35.2,29.90,ENE,67,4.5,12.3,82,0.00,,,0.00,WUHU21623XXSP,2013-04-10 04:50:00,
2013-04-09 23:55:00,40.1,35.2,29.90,ENE,67,6.0,6.9,82,0.00,,,0.00,WUHU21623XXSP,2013-04-10 04:55:00,